Time;durP1;ratioP1;P1;durP2;ratioP2;P2;SDS_P1;SDS_P2;PMS_P1;PMS_P2;Temp;Humidity;BMP_temperature;BMP_pressure;BME280_temperature;BME280_humidity;BME280_pressure;Samples;Min_cycle;Max_cycle;Signal;HPM_P1;HPM_P2
2021/05/01 00:01:17;;;;;;;18.92;6.40;;;;;;;17.82;62.70;93670.13;5015072;28;20038;-82
2021/05/01 00:03:42;;;;;;;11.70;5.20;;;;;;;17.94;61.69;93694.16;5028383;28;20036;-83
2021/05/01 00:06:07;;;;;;;15.20;5.68;;;;;;;17.85;61.50;93685.50;5023295;28;20034;-82
2021/05/01 00:08:33;;;;;;;18.02;5.40;;;;;;;17.85;61.75;93688.16;5004861;28;20104;-82
2021/05/01 00:11:02;;;;;;;11.25;4.57;;;;;;;17.87;62.20;93688.63;5010577;28;20606;-82
2021/05/01 00:13:29;;;;;;;26.73;6.28;;;;;;;17.88;62.70;93698.19;5022311;28;20045;-83
2021/05/01 00:15:54;;;;;;;16.13;5.15;;;;;;;17.80;63.04;93694.50;5011892;28;20542;-83
2021/05/01 00:18:20;;;;;;;16.23;4.90;;;;;;;17.59;63.07;93673.25;5006946;28;20095;-82
2021/05/01 00:20:46;;;;;;;17.23;4.85;;;;;;;17.68;62.26;93699.88;5022913;28;20063;-82
2021/05/01 00:23:12;;;;;;;15.80;5.57;;;;;;;17.61;62.02;93684.41;5039766;28;20121;-83
2021/05/01 00:25:37;;;;;;;14.18;5.38;;;;;;;17.60;61.75;93685.50;5025177;28;20119;-83
2021/05/01 00:28:03;;;;;;;16.30;4.70;;;;;;;17.72;60.75;93696.19;5035886;28;20276;-83
2021/05/01 00:30:29;;;;;;;12.20;4.85;;;;;;;17.75;60.75;93697.41;5027878;28;20525;-83
2021/05/01 00:32:56;;;;;;;13.25;4.38;;;;;;;17.83;60.86;93709.13;5012359;28;20111;-83
2021/05/01 00:35:21;;;;;;;19.80;6.03;;;;;;;17.84;60.55;93706.09;5006795;28;20095;-83
2021/05/01 00:37:46;;;;;;;13.73;5.18;;;;;;;17.84;61.28;93702.66;5012819;28;20056;-82
2021/05/01 00:40:12;;;;;;;17.23;5.45;;;;;;;17.85;61.97;93693.50;5031188;28;20331;-83
2021/05/01 00:42:38;;;;;;;14.68;5.45;;;;;;;17.79;61.18;93692.19;5029526;28;20070;-82
2021/05/01 00:45:04;;;;;;;19.33;6.20;;;;;;;17.83;62.53;93690.41;5022718;28;20128;-83
2021/05/01 00:47:29;;;;;;;19.40;5.82;;;;;;;17.73;62.80;93684.41;5022311;28;20033;-83
2021/05/01 00:49:55;;;;;;;19.38;4.93;;;;;;;17.78;62.27;93693.31;5021607;28;20550;-83
2021/05/01 00:52:20;;;;;;;11.70;5.95;;;;;;;17.79;61.73;93692.19;5007420;28;20509;-83
2021/05/01 00:54:46;;;;;;;15.68;5.20;;;;;;;17.71;62.39;93691.19;5010533;28;20037;-83
2021/05/01 00:57:12;;;;;;;16.25;4.38;;;;;;;17.80;60.40;93699.84;5005574;28;20136;-83
2021/05/01 00:59:38;;;;;;;23.92;7.57;;;;;;;17.74;60.95;93691.28;5014809;28;20099;-82
2021/05/01 01:02:03;;;;;;;14.23;3.67;;;;;;;17.91;60.83;93700.19;5012299;28;20509;-83
2021/05/01 01:04:29;;;;;;;16.75;4.40;;;;;;;17.88;60.25;93687.50;5009136;28;20129;-83
2021/05/01 01:06:54;;;;;;;14.70;4.82;;;;;;;17.82;60.62;93680.81;5038754;28;20017;-82
2021/05/01 01:09:20;;;;;;;14.50;4.63;;;;;;;17.97;60.16;93694.28;5013568;28;20037;-83
2021/05/01 01:11:46;;;;;;;15.65;4.95;;;;;;;17.88;60.63;93676.81;5013815;28;20444;-82
2021/05/01 01:14:15;;;;;;;15.38;5.00;;;;;;;17.83;60.87;93679.72;5010396;28;20037;-82
2021/05/01 01:16:44;;;;;;;12.55;4.97;;;;;;;17.86;59.50;93687.06;5017459;28;20076;-83
2021/05/01 01:19:10;;;;;;;13.05;4.70;;;;;;;17.83;59.85;93682.38;5011974;28;20541;-83
2021/05/01 01:21:53;;;;;;;15.25;4.18;;;;;;;17.79;60.29;93674.25;5015188;28;20099;-83
2021/05/01 01:24:19;;;;;;;17.27;5.60;;;;;;;17.74;61.06;93672.56;5010251;28;20049;-82
2021/05/01 01:26:45;;;;;;;26.33;9.80;;;;;;;17.77;60.68;93679.16;5014282;28;20033;-82
2021/05/01 01:29:14;;;;;;;17.67;5.97;;;;;;;17.84;61.58;93670.59;5025402;28;20041;-83
2021/05/01 01:31:41;;;;;;;9.30;4.15;;;;;;;17.87;61.36;93677.91;5031399;28;20060;-83
2021/05/01 01:34:06;;;;;;;13.02;4.20;;;;;;;17.79;60.62;93670.81;5028930;28;20029;-83
2021/05/01 01:36:32;;;;;;;16.95;4.63;;;;;;;17.88;60.83;93679.50;5013461;28;20337;-83
2021/05/01 01:38:58;;;;;;;18.75;4.57;;;;;;;17.78;60.58;93679.94;5025921;28;20037;-83
2021/05/01 01:41:24;;;;;;;12.13;4.28;;;;;;;17.72;60.83;93671.38;5018675;28;20076;-83
2021/05/01 01:43:50;;;;;;;12.65;4.55;;;;;;;17.64;62.11;93659.66;5005820;28;20037;-83
2021/05/01 01:46:15;;;;;;;12.02;4.68;;;;;;;17.66;61.93;93667.34;5010816;28;20140;-83
2021/05/01 01:48:41;;;;;;;9.60;4.80;;;;;;;17.67;62.02;93666.25;5034488;28;20098;-82
2021/05/01 01:51:06;;;;;;;14.80;5.10;;;;;;;17.70;62.31;93663.69;5028723;28;20049;-83
2021/05/01 01:53:32;;;;;;;23.25;11.13;;;;;;;17.61;62.60;93673.72;5020261;28;20069;-84
2021/05/01 01:55:57;;;;;;;24.58;7.32;;;;;;;17.54;62.08;93654.00;5011141;28;20754;-82
2021/05/01 01:58:23;;;;;;;14.00;4.75;;;;;;;17.53;62.53;93666.56;5011538;28;20480;-83
2021/05/01 02:00:51;;;;;;;16.50;4.60;;;;;;;17.43;62.94;93667.00;5016824;28;20138;-83
2021/05/01 02:03:17;;;;;;;11.25;4.78;;;;;;;17.62;61.31;93667.25;5011456;28;20045;-83
2021/05/01 02:05:44;;;;;;;13.13;4.25;;;;;;;17.46;62.55;93663.66;5012603;28;20033;-82
2021/05/01 02:08:10;;;;;;;13.50;4.70;;;;;;;17.47;62.65;93681.25;5016169;28;20068;-83
2021/05/01 02:10:36;;;;;;;17.05;6.55;;;;;;;17.42;61.96;93675.34;5012417;28;20391;-83
2021/05/01 02:13:02;;;;;;;13.20;5.10;;;;;;;17.44;62.20;93681.94;5016297;28;20032;-82
2021/05/01 02:15:27;;;;;;;12.43;4.85;;;;;;;17.52;61.00;93683.69;5029636;28;20038;-83
2021/05/01 02:17:55;;;;;;;18.33;5.45;;;;;;;17.61;61.44;93689.75;5019377;28;20030;-82
2021/05/01 02:20:23;;;;;;;13.07;5.18;;;;;;;17.64;61.68;93694.41;5022517;28;20096;-83
2021/05/01 02:22:49;;;;;;;14.75;5.95;;;;;;;17.64;62.39;93705.09;5027749;28;20041;-83
2021/05/01 02:25:15;;;;;;;15.38;5.38;;;;;;;17.61;62.97;93687.06;5025374;28;20029;-83
2021/05/01 02:27:41;;;;;;;17.88;4.65;;;;;;;17.74;62.32;93696.63;5032872;28;20040;-82
2021/05/01 02:30:12;;;;;;;12.25;5.18;;;;;;;17.71;61.81;93693.84;5029458;28;20053;-82
2021/05/01 02:32:38;;;;;;;14.52;5.50;;;;;;;17.69;61.11;93682.75;5024946;28;20033;-82
2021/05/01 02:35:06;;;;;;;13.25;4.75;;;;;;;17.57;62.12;93674.69;5014798;28;20364;-83
2021/05/01 02:37:31;;;;;;;11.38;4.45;;;;;;;17.61;60.72;93689.75;5010011;28;20463;-82
2021/05/01 02:39:57;;;;;;;13.55;4.65;;;;;;;17.63;60.15;93679.50;5016231;28;20244;-82
2021/05/01 02:42:22;;;;;;;13.18;5.32;;;;;;;17.43;61.58;93672.34;5011093;28;20045;-83
2021/05/01 02:44:48;;;;;;;11.18;4.20;;;;;;;17.51;61.42;93676.78;5010498;28;20461;-82
2021/05/01 02:47:14;;;;;;;18.48;5.15;;;;;;;17.45;61.65;93675.44;5017899;28;20046;-82
2021/05/01 02:49:40;;;;;;;10.48;4.70;;;;;;;17.33;62.53;93670.91;5010133;28;20349;-82
2021/05/01 02:52:05;;;;;;;16.27;5.00;;;;;;;17.35;62.72;93672.47;5029174;28;20033;-82
2021/05/01 02:54:31;;;;;;;18.88;7.53;;;;;;;17.23;63.71;93678.56;5009184;28;20057;-83
2021/05/01 02:56:56;;;;;;;14.45;5.28;;;;;;;17.31;62.06;93678.47;5014186;28;20184;-82
2021/05/01 02:59:22;;;;;;;13.23;4.55;;;;;;;17.28;62.11;93678.34;5019221;28;20057;-83
2021/05/01 03:01:48;;;;;;;45.55;16.48;;;;;;;17.33;63.31;93691.47;5011209;28;20076;-83
2021/05/01 03:04:13;;;;;;;15.45;5.03;;;;;;;17.31;63.60;93693.69;5012199;28;20503;-83
2021/05/01 03:06:39;;;;;;;13.98;5.68;;;;;;;17.36;64.17;93680.13;5034706;28;20570;-82
2021/05/01 03:09:05;;;;;;;13.20;5.78;;;;;;;17.21;63.99;93662.09;5032479;28;20045;-82
2021/05/01 03:11:31;;;;;;;16.55;6.03;;;;;;;17.17;64.56;93682.56;5027422;28;20044;-82
2021/05/01 03:13:56;;;;;;;15.15;4.97;;;;;;;17.15;65.36;93695.47;5029811;28;20040;-82
2021/05/01 03:16:22;;;;;;;20.58;7.68;;;;;;;17.11;65.42;93689.22;5030016;28;20029;-82
2021/05/01 03:18:47;;;;;;;15.93;6.20;;;;;;;17.00;65.80;93683.53;5033744;28;20514;-82
2021/05/01 03:21:13;;;;;;;17.50;6.13;;;;;;;16.98;65.13;93696.44;5028671;28;20574;-83
2021/05/01 03:23:38;;;;;;;21.05;5.00;;;;;;;17.01;63.41;93689.63;5031212;28;20276;-83
2021/05/01 03:26:05;;;;;;;13.13;5.55;;;;;;;16.93;64.65;93685.19;5027696;28;20037;-82
2021/05/01 03:28:30;;;;;;;16.08;5.22;;;;;;;17.00;63.43;93701.44;5028763;28;20136;-82
2021/05/01 03:30:56;;;;;;;12.65;5.32;;;;;;;17.02;63.75;93696.53;5030687;28;20021;-81
2021/05/01 03:33:21;;;;;;;11.68;4.68;;;;;;;17.04;64.57;93697.00;5008968;28;20044;-82
2021/05/01 03:35:47;;;;;;;12.27;4.50;;;;;;;17.13;63.72;93697.69;5025324;28;20061;-82
2021/05/01 03:38:12;;;;;;;11.95;4.32;;;;;;;17.07;64.13;93689.09;5019584;28;20212;-82
2021/05/01 03:40:38;;;;;;;12.73;4.72;;;;;;;17.14;63.95;93699.25;5010860;28;20154;-82
2021/05/01 03:43:05;;;;;;;12.25;6.40;;;;;;;17.09;64.81;93696.78;5012683;28;20029;-83
2021/05/01 03:45:31;;;;;;;18.13;6.95;;;;;;;17.24;64.48;93704.16;5008682;28;20052;-82
2021/05/01 03:47:56;;;;;;;15.50;6.63;;;;;;;17.20;65.30;93700.59;5024080;28;20052;-82
2021/05/01 03:50:22;;;;;;;16.60;6.53;;;;;;;17.26;65.53;93710.72;5019797;28;20038;-82
2021/05/01 03:52:48;;;;;;;13.77;6.35;;;;;;;17.28;65.83;93711.19;5017344;28;20614;-82
2021/05/01 03:55:14;;;;;;;13.27;5.50;;;;;;;17.36;65.61;93698.81;5044938;28;20406;-83
2021/05/01 03:57:39;;;;;;;13.13;5.88;;;;;;;17.23;64.84;93694.59;5009616;28;20018;-82
2021/05/01 04:00:06;;;;;;;17.35;6.00;;;;;;;17.32;65.24;93698.72;5010748;28;20060;-82
2021/05/01 04:02:32;;;;;;;19.33;6.05;;;;;;;17.41;65.47;93698.59;5018510;28;20464;-83
2021/05/01 04:04:57;;;;;;;12.70;5.32;;;;;;;17.40;65.14;93707.72;5021348;28;20083;-82
2021/05/01 04:07:22;;;;;;;11.85;5.60;;;;;;;17.38;65.18;93712.63;5018035;28;20518;-82
2021/05/01 04:09:48;;;;;;;10.60;4.82;;;;;;;17.61;64.70;93719.13;5031511;28;20052;-82
2021/05/01 04:12:13;;;;;;;12.65;4.60;;;;;;;17.69;63.38;93710.22;5011271;28;20053;-83
2021/05/01 04:14:38;;;;;;;19.08;5.68;;;;;;;17.71;63.52;93713.34;5012902;28;20414;-82
2021/05/01 04:17:04;;;;;;;25.10;12.25;;;;;;;17.77;64.43;93716.56;5007317;28;20049;-82
2021/05/01 04:19:29;;;;;;;21.63;7.97;;;;;;;17.79;64.46;93716.25;5011525;28;20033;-82
2021/05/01 04:22:03;;;;;;;18.08;7.18;;;;;;;17.79;64.36;93719.69;5018239;28;20029;-82
2021/05/01 04:24:28;;;;;;;13.68;6.50;;;;;;;18.02;64.31;93714.66;5010132;28;20037;-83
2021/05/01 04:26:55;;;;;;;20.95;8.88;;;;;;;18.42;62.88;93726.16;5004188;28;20049;-82
2021/05/01 04:29:20;;;;;;;15.27;5.53;;;;;;;18.82;60.46;93686.00;5021547;28;20033;-83
2021/05/01 04:31:46;;;;;;;17.23;6.68;;;;;;;19.62;58.93;93711.78;5023813;28;20045;-83
2021/05/01 04:34:11;;;;;;;15.93;5.95;;;;;;;20.40;56.11;93713.56;5009574;28;20032;-83
2021/05/01 04:36:37;;;;;;;11.38;5.13;;;;;;;20.83;55.94;93705.25;5030682;28;20025;-82
2021/05/01 04:39:03;;;;;;;16.65;5.97;;;;;;;21.32;52.41;93702.72;5009803;28;20037;-83
2021/05/01 04:41:28;;;;;;;15.98;5.93;;;;;;;21.63;51.01;93696.34;5009988;28;20095;-82
2021/05/01 04:43:53;;;;;;;15.13;6.18;;;;;;;21.77;51.45;93703.84;5026513;28;20114;-83
2021/05/01 04:46:19;;;;;;;13.75;5.40;;;;;;;21.73;51.33;93701.13;5029294;28;20033;-83
2021/05/01 04:48:45;;;;;;;14.32;6.55;;;;;;;21.83;50.91;93708.56;5010561;28;20440;-83
2021/05/01 04:51:11;;;;;;;11.50;5.97;;;;;;;22.52;49.83;93711.91;5015750;28;20036;-82
2021/05/01 04:53:36;;;;;;;16.13;6.65;;;;;;;23.30;47.32;93702.03;5031564;28;20044;-83
2021/05/01 04:56:02;;;;;;;17.75;6.55;;;;;;;23.72;45.44;93712.47;5030126;28;20064;-84
2021/05/01 04:58:27;;;;;;;15.27;5.57;;;;;;;23.68;45.04;93715.13;5029341;28;20444;-83
2021/05/01 05:00:53;;;;;;;15.88;6.47;;;;;;;23.59;45.47;93709.28;5030403;28;20048;-83
2021/05/01 05:03:18;;;;;;;13.77;5.45;;;;;;;23.33;46.20;93715.56;5027739;28;20033;-83
2021/05/01 05:05:44;;;;;;;19.33;5.13;;;;;;;23.38;45.51;93716.34;5025356;28;20989;-83
2021/05/01 05:08:10;;;;;;;12.82;5.55;;;;;;;23.34;45.71;93710.94;5029847;28;20376;-83
2021/05/01 05:10:36;;;;;;;18.90;5.70;;;;;;;23.38;46.35;93722.53;5025759;28;20614;-83
2021/05/01 05:13:01;;;;;;;19.23;5.75;;;;;;;23.73;45.55;93724.81;5009702;28;20099;-83
2021/05/01 05:15:27;;;;;;;15.02;6.13;;;;;;;24.27;44.52;93726.78;5026424;28;20106;-84
2021/05/01 05:17:53;;;;;;;15.77;6.47;;;;;;;24.98;43.00;93719.84;5016058;28;20069;-84
2021/05/01 05:20:19;;;;;;;14.95;6.75;;;;;;;25.54;41.00;93714.97;5019850;28;20184;-84
2021/05/01 05:22:44;;;;;;;9.73;5.40;;;;;;;26.12;40.04;93715.41;5029585;28;20492;-83
2021/05/01 05:25:10;;;;;;;13.57;5.05;;;;;;;26.33;39.19;93716.56;5011810;28;20547;-84
2021/05/01 05:27:36;;;;;;;18.20;6.45;;;;;;;26.50;38.80;93718.47;5009990;28;20448;-83
2021/05/01 05:30:02;;;;;;;20.00;5.40;;;;;;;26.22;38.55;93711.94;5010095;28;20524;-83
2021/05/01 05:32:27;;;;;;;17.23;5.32;;;;;;;26.21;39.19;93704.97;5007456;28;20155;-83
2021/05/01 05:34:53;;;;;;;10.00;5.03;;;;;;;26.06;39.56;93716.19;5017575;28;20120;-84
2021/05/01 05:37:20;;;;;;;10.82;4.68;;;;;;;25.98;39.38;93718.13;5025945;28;20049;-84
2021/05/01 05:39:47;;;;;;;12.20;4.80;;;;;;;25.72;39.84;93721.19;5010137;28;20026;-83
2021/05/01 05:42:16;;;;;;;20.73;5.50;;;;;;;24.97;41.73;93714.84;5007283;28;20475;-83
2021/05/01 05:44:45;;;;;;;13.50;5.82;;;;;;;24.76;42.37;93723.59;5015927;28;20041;-84
2021/05/01 05:47:12;;;;;;;19.33;5.18;;;;;;;25.18;42.13;93730.34;5011283;28;20068;-83
2021/05/01 05:49:38;;;;;;;12.57;5.35;;;;;;;26.05;40.76;93728.16;5010554;28;20540;-84
2021/05/01 05:52:03;;;;;;;15.70;5.97;;;;;;;26.62;38.72;93721.56;5028342;28;20033;-83
2021/05/01 05:54:29;;;;;;;13.20;5.25;;;;;;;27.79;37.04;93731.13;5014335;28;20119;-84
2021/05/01 05:56:54;;;;;;;14.43;5.45;;;;;;;29.31;34.63;93716.09;5008697;28;20041;-84
2021/05/01 05:59:20;;;;;;;16.20;5.50;;;;;;;30.41;33.23;93717.16;5012594;28;20033;-83
2021/05/01 06:01:47;;;;;;;15.35;4.90;;;;;;;31.33;31.29;93712.72;5011758;28;20072;-84
2021/05/01 06:04:16;;;;;;;18.35;4.47;;;;;;;32.20;29.99;93722.91;5014371;28;20062;-84
2021/05/01 06:06:54;;;;;;;8.02;4.13;;;;;;;32.95;29.09;93713.53;5034411;28;20052;-85
2021/05/01 06:09:20;;;;;;;9.75;4.22;;;;;;;34.37;26.94;93734.03;5021369;28;20431;-85
2021/05/01 06:11:48;;;;;;;10.38;4.03;;;;;;;34.42;26.71;93717.00;4999370;28;20427;-84
2021/05/01 06:14:17;;;;;;;12.10;4.90;;;;;;;35.43;25.23;93733.13;5006415;28;20154;-84
2021/05/01 06:16:44;;;;;;;9.98;5.10;;;;;;;35.83;24.29;93730.47;5015459;28;20048;-85
2021/05/01 06:19:10;;;;;;;11.73;4.68;;;;;;;35.27;24.91;93724.34;5031244;28;20028;-84
2021/05/01 06:21:37;;;;;;;12.45;4.72;;;;;;;35.71;25.04;93714.06;5011652;28;20429;-84
2021/05/01 06:24:03;;;;;;;11.13;5.00;;;;;;;34.97;25.47;93707.31;5017440;28;20490;-85
2021/05/01 06:26:29;;;;;;;14.95;5.20;;;;;;;35.80;25.12;93705.88;5014728;28;20407;-83
2021/05/01 06:28:55;;;;;;;14.68;5.47;;;;;;;36.92;24.16;93702.47;5011752;28;20041;-82
2021/05/01 06:31:22;;;;;;;10.45;4.50;;;;;;;37.07;22.86;93699.88;5012031;28;20036;-82
2021/05/01 06:33:47;;;;;;;11.30;4.97;;;;;;;36.68;23.79;93702.31;5010445;28;20029;-82
2021/05/01 06:36:14;;;;;;;10.30;4.22;;;;;;;36.17;24.36;93691.03;5016974;28;20041;-82
2021/05/01 06:38:40;;;;;;;13.48;4.57;;;;;;;36.28;23.89;93680.38;5010645;28;20156;-82
2021/05/01 06:41:08;;;;;;;12.10;4.70;;;;;;;35.78;24.81;93680.78;5010501;28;20169;-82
2021/05/01 06:43:58;;;;;;;14.73;5.05;;;;;;;36.07;24.39;93685.97;5010548;28;20033;-83
2021/05/01 06:46:27;;;;;;;10.23;4.25;;;;;;;36.44;23.72;93685.59;5015895;28;20412;-82
2021/05/01 06:48:59;;;;;;;10.88;4.57;;;;;;;36.73;23.18;93698.97;5017332;28;20112;-82
2021/05/01 06:51:26;;;;;;;9.25;3.58;;;;;;;37.28;22.78;93707.25;5046524;28;20045;-82
2021/05/01 06:53:52;;;;;;;10.40;4.53;;;;;;;37.53;23.21;93719.91;5022098;28;20038;-84
2021/05/01 06:56:18;;;;;;;17.17;4.13;;;;;;;37.01;23.31;93712.72;5013837;28;20033;-85
2021/05/01 06:58:43;;;;;;;18.92;4.90;;;;;;;37.29;23.27;93711.50;5027086;28;20041;-84
2021/05/01 07:01:11;;;;;;;11.98;4.07;;;;;;;37.95;22.28;93748.28;5017431;28;20044;-85
2021/05/01 07:03:49;;;;;;;9.85;4.22;;;;;;;38.36;21.78;93741.25;5024992;28;20021;-82
2021/05/01 07:06:17;;;;;;;14.80;4.35;;;;;;;38.55;22.31;93750.22;5009988;28;20043;-82
2021/05/01 07:08:42;;;;;;;12.63;5.07;;;;;;;38.97;21.01;93756.41;5007626;28;20045;-83
2021/05/01 07:11:09;;;;;;;13.00;4.55;;;;;;;39.09;21.18;93748.34;5014779;28;20041;-82
2021/05/01 07:13:34;;;;;;;12.57;5.40;;;;;;;39.20;20.90;93762.34;5012363;28;20530;-82
2021/05/01 07:16:03;;;;;;;13.02;4.32;;;;;;;38.96;21.40;93771.44;5033480;28;21033;-82
2021/05/01 07:18:32;;;;;;;9.25;4.22;;;;;;;38.28;21.49;93780.69;5006632;28;20041;-81
2021/05/01 07:20:59;;;;;;;9.25;4.82;;;;;;;37.63;22.83;93784.84;5025124;28;20517;-81
2021/05/01 07:23:25;;;;;;;17.80;4.93;;;;;;;37.16;22.49;93780.56;5045489;28;20449;-81
2021/05/01 07:25:50;;;;;;;14.50;5.10;;;;;;;37.08;23.73;93779.34;5030721;28;20065;-80
2021/05/01 07:28:23;;;;;;;12.48;5.07;;;;;;;37.02;23.39;93783.13;5028606;28;20411;-82
2021/05/01 07:30:52;;;;;;;9.23;4.90;;;;;;;37.02;23.19;93788.63;5013758;28;20022;-82
2021/05/01 07:33:31;;;;;;;8.70;4.78;;;;;;;37.03;23.30;93788.19;5009100;28;20120;-84
2021/05/01 07:36:23;;;;;;;12.02;5.40;;;;;;;36.99;23.78;93792.31;5031948;28;20128;-85
2021/05/01 07:38:53;;;;;;;14.02;6.03;;;;;;;37.25;23.21;93783.31;5016322;28;20045;-85
2021/05/01 07:41:23;;;;;;;14.02;5.63;;;;;;;37.93;22.53;93783.84;5023211;28;21128;-84
2021/05/01 07:43:51;;;;;;;10.27;5.47;;;;;;;38.24;22.07;93783.63;5028431;28;20044;-85
2021/05/01 07:46:21;;;;;;;13.43;5.38;;;;;;;38.13;21.83;93762.03;5031779;28;20086;-84
2021/05/01 07:48:48;;;;;;;12.80;5.65;;;;;;;36.99;22.65;93790.34;5028967;28;20347;-84
2021/05/01 07:51:14;;;;;;;15.38;5.72;;;;;;;35.64;24.39;93790.06;5032122;28;20053;-84
2021/05/01 07:53:39;;;;;;;16.65;5.70;;;;;;;35.22;24.67;93807.31;5026913;28;20057;-82
2021/05/01 07:56:05;;;;;;;17.23;5.20;;;;;;;35.44;24.91;93805.34;5029049;28;20399;-85
2021/05/01 07:58:30;;;;;;;18.65;6.25;;;;;;;35.54;25.07;93793.97;5043539;28;20045;-85
2021/05/01 08:00:56;;;;;;;15.30;5.90;;;;;;;35.40;25.27;93789.00;5033805;28;20035;-85
2021/05/01 08:03:22;;;;;;;15.73;5.88;;;;;;;34.98;24.43;93785.75;5030038;28;20066;-84
2021/05/01 08:05:49;;;;;;;14.18;5.88;;;;;;;35.51;25.09;93789.38;5029108;28;20055;-85
2021/05/01 08:08:14;;;;;;;15.65;6.53;;;;;;;35.11;25.17;93793.91;5017099;28;20041;-85
2021/05/01 08:10:41;;;;;;;20.60;6.75;;;;;;;34.53;25.93;93788.78;5008560;28;20049;-84
2021/05/01 08:13:06;;;;;;;17.42;5.95;;;;;;;33.99;26.19;93799.09;5008847;28;20026;-85
2021/05/01 08:15:33;;;;;;;18.85;6.25;;;;;;;34.05;26.50;93791.84;5022307;28;20686;-84
2021/05/01 08:18:00;;;;;;;21.02;6.13;;;;;;;34.41;25.83;93795.03;5026301;28;20033;-84
2021/05/01 08:20:26;;;;;;;18.73;6.25;;;;;;;34.13;25.84;93782.97;5030932;28;20040;-84
2021/05/01 08:22:51;;;;;;;18.35;8.40;;;;;;;34.61;25.64;93784.59;5020235;28;20361;-85
2021/05/01 08:25:17;;;;;;;18.65;5.97;;;;;;;35.08;24.39;93767.34;5025714;28;20032;-85
2021/05/01 08:27:42;;;;;;;18.85;6.03;;;;;;;35.56;24.81;93777.03;5010506;28;20021;-85
2021/05/01 08:30:11;;;;;;;11.85;5.45;;;;;;;36.16;24.80;93769.31;5010454;28;20429;-85
2021/05/01 08:32:37;;;;;;;13.40;5.40;;;;;;;37.00;22.83;93772.56;5021385;28;20061;-82
2021/05/01 08:35:03;;;;;;;13.20;4.82;;;;;;;37.22;22.22;93770.47;5025854;28;20152;-83
2021/05/01 08:37:29;;;;;;;11.65;4.95;;;;;;;37.69;22.17;93761.69;5030744;28;20056;-82
2021/05/01 08:39:54;;;;;;;10.77;4.22;;;;;;;37.73;21.41;93778.06;5030172;28;20040;-82
2021/05/01 08:42:20;;;;;;;13.50;5.35;;;;;;;36.66;22.34;93759.06;5029395;28;22203;-82
2021/05/01 08:44:45;;;;;;;13.77;4.55;;;;;;;36.88;22.33;93770.72;5027753;28;20035;-82
2021/05/01 08:47:11;;;;;;;10.82;4.70;;;;;;;36.63;22.40;93757.22;5026105;28;20113;-82
2021/05/01 08:49:36;;;;;;;15.65;6.03;;;;;;;36.18;23.27;93763.34;5012280;28;20046;-82
2021/05/01 08:52:03;;;;;;;19.73;5.55;;;;;;;36.26;23.25;93742.59;5019449;28;20028;-84
2021/05/01 08:54:28;;;;;;;19.17;5.38;;;;;;;36.35;23.12;93740.63;5004369;28;20041;-85
2021/05/01 08:56:54;;;;;;;12.68;4.78;;;;;;;35.96;23.63;93746.88;5024779;28;20056;-84
2021/05/01 08:59:19;;;;;;;17.42;5.43;;;;;;;35.63;24.17;93747.28;5025684;28;20742;-84
2021/05/01 09:01:52;;;;;;;16.13;6.07;;;;;;;34.65;24.23;93733.09;5025752;28;20037;-85
2021/05/01 09:04:18;;;;;;;20.83;5.55;;;;;;;34.63;24.68;93724.53;5007893;28;20747;-84
2021/05/01 09:06:44;;;;;;;14.57;4.65;;;;;;;34.35;24.39;93734.50;5012103;28;20025;-83
2021/05/01 09:09:11;;;;;;;13.85;5.72;;;;;;;33.70;25.93;93722.41;5023509;28;20073;-84
2021/05/01 09:11:42;;;;;;;15.18;5.75;;;;;;;33.46;26.04;93741.09;5022137;28;20172;-84
2021/05/01 09:14:20;;;;;;;12.80;5.25;;;;;;;33.46;26.32;93735.63;5010058;28;20045;-84
2021/05/01 09:17:01;;;;;;;14.90;5.85;;;;;;;32.84;27.07;93729.47;5026076;28;20098;-84
2021/05/01 09:19:44;;;;;;;16.40;5.47;;;;;;;33.34;27.12;93745.34;5014908;28;20029;-84
2021/05/01 09:22:12;;;;;;;10.15;5.43;;;;;;;33.34;26.18;93744.56;5010147;28;20496;-85
2021/05/01 09:24:39;;;;;;;18.95;5.15;;;;;;;32.88;27.09;93743.09;5033869;28;20075;-83
2021/05/01 09:27:06;;;;;;;9.38;4.95;;;;;;;32.54;27.13;93732.63;5016612;28;20516;-83
2021/05/01 09:29:35;;;;;;;15.32;5.68;;;;;;;32.37;28.28;93722.88;5012482;28;20462;-84
2021/05/01 09:32:03;;;;;;;13.77;5.20;;;;;;;32.54;27.54;93733.38;5021338;28;20049;-84
2021/05/01 09:34:48;;;;;;;14.98;4.55;;;;;;;32.13;28.53;93731.25;5028649;28;21595;-84
2021/05/01 09:37:16;;;;;;;14.40;5.38;;;;;;;32.34;28.02;93735.47;5013834;28;20589;-83
2021/05/01 09:39:50;;;;;;;17.67;4.85;;;;;;;32.10;27.32;93715.72;5024820;28;20665;-84
2021/05/01 09:42:18;;;;;;;17.17;4.90;;;;;;;32.46;27.72;93725.78;5030385;28;20041;-84
2021/05/01 09:44:45;;;;;;;13.23;5.07;;;;;;;32.78;26.76;93725.75;5032481;28;20051;-83
2021/05/01 09:47:16;;;;;;;18.48;5.63;;;;;;;32.38;27.19;93705.28;5029035;28;20050;-84
2021/05/01 09:49:45;;;;;;;22.88;6.13;;;;;;;32.40;27.39;93725.50;5028866;28;20041;-84
2021/05/01 09:52:12;;;;;;;15.38;4.82;;;;;;;32.60;26.98;93720.69;5013532;28;20129;-84
2021/05/01 09:54:38;;;;;;;10.07;4.93;;;;;;;32.43;27.03;93715.69;5011536;28;20017;-84
2021/05/01 09:57:09;;;;;;;14.30;5.63;;;;;;;32.32;27.75;93704.25;5032961;28;20061;-83
2021/05/01 09:59:45;;;;;;;12.50;4.60;;;;;;;32.16;28.04;93714.00;5024329;28;20270;-84
2021/05/01 10:02:19;;;;;;;18.02;5.63;;;;;;;32.01;27.81;93715.50;5022886;28;20073;-83
2021/05/01 10:05:03;;;;;;;23.15;5.85;;;;;;;31.71;29.68;93724.03;5015533;28;20041;-83
2021/05/01 10:07:30;;;;;;;15.68;6.05;;;;;;;32.02;28.59;93719.78;5011172;28;20391;-83
2021/05/01 10:09:57;;;;;;;24.67;6.80;;;;;;;31.52;28.73;93702.97;5017192;28;20034;-84
2021/05/01 10:12:34;;;;;;;18.58;5.82;;;;;;;30.95;29.87;93699.41;5014390;28;21433;-84
2021/05/01 10:14:59;;;;;;;21.73;5.28;;;;;;;31.08;29.52;93696.88;5025605;28;20076;-83
2021/05/01 10:17:28;;;;;;;19.77;5.65;;;;;;;31.22;28.17;93698.53;5035936;28;20140;-83
2021/05/01 10:20:00;;;;;;;16.75;5.53;;;;;;;31.21;28.23;93684.13;5030245;28;20622;-83
2021/05/01 10:22:43;;;;;;;23.75;5.82;;;;;;;31.34;28.73;93693.19;5028202;28;20040;-83
2021/05/01 10:25:11;;;;;;;16.70;6.03;;;;;;;31.69;27.14;93686.19;5031380;28;20031;-82
2021/05/01 10:27:59;;;;;;;19.80;4.70;;;;;;;31.93;26.95;93678.59;5035272;28;20169;-84
2021/05/01 10:30:33;;;;;;;22.05;5.90;;;;;;;32.32;26.56;93666.72;5028977;28;20483;-83
2021/05/01 10:33:10;;;;;;;;;;;;;;;32.25;26.38;93667.69;5030592;28;20084;-84
2021/05/01 10:35:37;;;;;;;16.60;5.03;;;;;;;32.29;27.40;93669.56;5020532;28;20390;-84
2021/05/01 10:38:05;;;;;;;14.45;5.20;;;;;;;31.86;27.00;93659.66;5009800;28;20388;-84
2021/05/01 10:40:48;;;;;;;15.75;5.55;;;;;;;31.79;26.69;93670.75;5012312;28;20116;-84
2021/05/01 10:43:16;;;;;;;17.00;5.30;;;;;;;31.68;27.13;93662.03;5030819;28;20033;-83
2021/05/01 10:45:55;;;;;;;13.90;5.35;;;;;;;31.79;27.16;93657.09;5021158;28;20037;-84
2021/05/01 10:48:23;;;;;;;12.95;5.63;;;;;;;31.59;27.22;93654.44;5028045;28;21200;-83
2021/05/01 10:51:05;;;;;;;14.48;4.28;;;;;;;31.78;25.83;93645.38;5033000;28;20052;-84
2021/05/01 10:53:32;;;;;;;18.67;5.57;;;;;;;31.81;26.29;93627.38;5026987;28;20179;-84
2021/05/01 10:55:58;;;;;;;15.73;5.03;;;;;;;31.89;26.46;93634.22;5024819;28;20037;-85
2021/05/01 10:58:47;;;;;;;16.65;4.93;;;;;;;31.63;26.16;93632.50;5011539;28;20025;-83
2021/05/01 11:01:35;;;;;;;14.30;4.93;;;;;;;31.56;26.02;93652.56;5015726;28;20091;-83
2021/05/01 11:04:04;;;;;;;16.25;4.63;;;;;;;31.37;25.93;93651.38;5011921;28;20014;-84
2021/05/01 11:06:37;;;;;;;11.50;4.15;;;;;;;31.38;26.95;93652.13;5020766;28;20128;-84
2021/05/01 11:09:04;;;;;;;20.20;5.22;;;;;;;31.23;26.28;93659.09;5036224;28;20124;-84
2021/05/01 11:11:36;;;;;;;14.23;3.92;;;;;;;31.34;26.36;93643.25;5016405;28;20034;-84
2021/05/01 11:14:27;;;;;;;19.10;5.40;;;;;;;31.64;26.22;93655.88;5028579;28;20455;-84
2021/05/01 11:17:13;;;;;;;16.83;4.25;;;;;;;31.01;26.48;93639.66;5017478;28;20113;-84
2021/05/01 11:19:46;;;;;;;12.77;4.57;;;;;;;31.07;27.32;93629.81;5013965;28;20064;-84
2021/05/01 11:22:20;;;;;;;21.00;4.60;;;;;;;31.33;26.49;93631.56;5005585;28;20029;-83
2021/05/01 11:24:45;;;;;;;17.30;5.10;;;;;;;31.03;27.27;93640.06;5029911;28;20028;-84
2021/05/01 11:27:11;;;;;;;15.02;5.07;;;;;;;31.01;25.79;93642.38;5012850;28;20041;-84
2021/05/01 11:29:38;;;;;;;19.95;4.80;;;;;;;31.15;25.82;93625.75;5018968;28;20056;-83